createdAt,value
2022-12-18T00:01:20.760Z,-4.26
2022-12-18T00:03:48.375Z,-2.98
2022-12-18T00:06:16.644Z,-2.59
2022-12-18T00:08:44.463Z,-2.60
2022-12-18T00:11:19.760Z,-2.80
2022-12-18T00:13:46.739Z,-3.45
2022-12-18T00:16:16.751Z,-1.57
2022-12-18T00:18:43.933Z,-2.75
2022-12-18T00:21:13.014Z,-2.25
2022-12-18T00:23:44.219Z,-2.99
2022-12-18T00:26:20.050Z,-4.32
2022-12-18T00:28:47.552Z,-2.35
2022-12-18T00:31:18.397Z,-1.58
2022-12-18T00:33:45.414Z,-3.14
2022-12-18T00:36:15.624Z,-1.94
2022-12-18T00:38:42.913Z,-2.30
2022-12-18T00:41:11.556Z,-3.48
2022-12-18T00:43:39.474Z,-1.77
2022-12-18T00:46:07.380Z,-1.69
2022-12-18T00:48:34.199Z,-1.52
2022-12-18T00:51:00.938Z,-4.26
2022-12-18T00:53:27.755Z,-2.62
2022-12-18T00:55:55.704Z,-2.30
2022-12-18T00:58:22.497Z,-2.69
2022-12-18T01:00:49.467Z,-1.90
2022-12-18T01:03:16.268Z,-2.33
2022-12-18T01:05:44.436Z,-3.65
2022-12-18T01:08:12.129Z,-1.41
2022-12-18T01:10:42.455Z,-2.52
2022-12-18T01:13:09.699Z,-2.52
2022-12-18T01:15:36.860Z,-1.42
2022-12-18T01:18:03.584Z,-4.69
2022-12-18T01:20:31.429Z,-1.77
2022-12-18T01:22:58.218Z,-1.86
2022-12-18T01:25:25.068Z,-3.68
2022-12-18T01:27:51.936Z,-2.22
2022-12-18T01:30:18.832Z,-2.76
2022-12-18T01:32:47.951Z,-1.64
2022-12-18T01:35:14.606Z,-0.85
2022-12-18T01:37:41.386Z,-1.39
2022-12-18T01:40:08.849Z,-2.04
2022-12-18T01:42:35.672Z,-1.84
2022-12-18T01:45:14.477Z,-1.74
2022-12-18T01:47:51.806Z,-2.80
2022-12-18T01:50:28.501Z,-0.85
2022-12-18T01:53:01.057Z,-1.89
2022-12-18T01:55:33.149Z,-1.62
2022-12-18T01:58:01.573Z,-1.94
2022-12-18T02:00:29.681Z,-2.80
2022-12-18T02:02:57.768Z,-2.28
2022-12-18T02:06:05.886Z,-0.97
2022-12-18T02:08:38.528Z,-1.93
2022-12-18T02:11:23.472Z,-0.75
2022-12-18T02:14:06.044Z,-0.85
2022-12-18T02:16:43.524Z,-0.76
2022-12-18T02:19:33.294Z,-1.89
2022-12-18T02:22:00.481Z,-1.08
2022-12-18T02:25:14.275Z,-1.19
2022-12-18T02:27:45.258Z,-2.01
2022-12-18T02:30:12.500Z,-2.45
2022-12-18T02:32:43.221Z,-0.70
2022-12-18T02:35:15.947Z,-2.28
2022-12-18T02:37:46.208Z,-1.95
2022-12-18T02:40:15.150Z,-0.60
2022-12-18T02:42:43.228Z,-0.54
2022-12-18T02:45:11.583Z,-0.48
2022-12-18T02:47:41.835Z,-1.63
2022-12-18T02:50:37.066Z,-0.68
2022-12-18T02:53:25.381Z,-1.55
2022-12-18T02:56:16.486Z,-0.50
2022-12-18T02:58:43.229Z,-0.37
2022-12-18T03:01:20.400Z,-0.49
2022-12-18T03:04:00.580Z,-1.90
2022-12-18T03:06:36.331Z,-1.81
2022-12-18T03:09:11.772Z,-0.54
2022-12-18T03:12:01.183Z,-1.53
2022-12-18T03:14:32.107Z,-1.15
2022-12-18T03:17:02.994Z,-0.36
2022-12-18T03:19:33.718Z,-0.39
2022-12-18T03:22:04.444Z,-1.41
2022-12-18T03:24:41.109Z,-0.43
2022-12-18T03:27:14.662Z,-1.48
2022-12-18T03:29:53.942Z,-0.50
2022-12-18T03:32:32.500Z,-0.52
2022-12-18T03:35:05.329Z,-1.71
2022-12-18T03:37:36.073Z,-2.29
2022-12-18T03:40:04.807Z,-1.27
2022-12-18T03:42:40.942Z,-0.47
2022-12-18T03:45:19.790Z,-1.49
2022-12-18T03:48:22.406Z,-1.20
2022-12-18T03:51:01.361Z,-0.47
2022-12-18T03:54:03.644Z,-0.27
2022-12-18T03:56:38.847Z,-0.11
2022-12-18T03:59:08.279Z,-0.61
2022-12-18T04:01:40.817Z,-0.83
2022-12-18T04:04:09.492Z,-0.66
2022-12-18T04:06:40.115Z,-1.86
2022-12-18T04:09:07.866Z,-0.80
2022-12-18T04:11:39.064Z,-1.36
2022-12-18T04:14:07.509Z,-1.76
2022-12-18T04:16:34.959Z,-0.71
2022-12-18T04:19:04.904Z,-1.64
2022-12-18T04:21:37.941Z,-1.58
2022-12-18T04:24:05.989Z,-1.69
2022-12-18T04:26:34.497Z,-1.62
2022-12-18T04:29:14.724Z,-0.16
2022-12-18T04:31:41.572Z,-1.24
2022-12-18T04:34:09.525Z,-0.65
2022-12-18T04:36:42.198Z,-1.39
2022-12-18T04:39:09.248Z,-2.37
2022-12-18T04:41:35.943Z,-1.51
2022-12-18T04:44:04.253Z,-1.57
2022-12-18T04:46:30.963Z,-1.10
2022-12-18T04:48:57.774Z,-1.03
2022-12-18T04:51:26.621Z,-1.66
2022-12-18T04:53:54.418Z,-0.15
2022-12-18T04:56:21.556Z,-1.16
2022-12-18T04:58:50.918Z,-1.42
2022-12-18T05:01:19.437Z,-0.29
2022-12-18T05:03:46.440Z,-1.93
2022-12-18T05:06:13.417Z,-0.93
2022-12-18T05:08:40.095Z,-2.09
2022-12-18T05:11:11.132Z,-2.74
2022-12-18T05:13:39.255Z,-0.34
2022-12-18T05:16:06.911Z,-0.84
2022-12-18T05:18:33.909Z,-0.51
2022-12-18T05:21:00.909Z,-1.35
2022-12-18T05:23:28.173Z,-1.48
2022-12-18T05:26:03.980Z,-0.29
2022-12-18T05:28:32.786Z,-0.76
2022-12-18T05:31:02.020Z,-1.19
2022-12-18T05:33:32.908Z,-2.54
2022-12-18T05:36:01.917Z,-0.20
2022-12-18T05:38:32.915Z,-0.80
2022-12-18T05:41:03.125Z,-1.79
2022-12-18T05:43:30.121Z,-0.18
2022-12-18T05:45:57.886Z,-1.43
2022-12-18T05:48:25.085Z,-1.36
2022-12-18T05:50:52.077Z,-1.27
2022-12-18T05:53:21.235Z,-0.67
2022-12-18T05:55:48.336Z,0.10
2022-12-18T05:58:16.079Z,0.02
2022-12-18T06:00:45.685Z,-1.73
2022-12-18T06:03:14.342Z,-1.44
2022-12-18T06:05:46.428Z,-0.16
2022-12-18T06:08:14.255Z,-1.32
2022-12-18T06:10:42.165Z,-0.58
2022-12-18T06:13:14.947Z,-2.10
2022-12-18T06:15:41.687Z,-1.42
2022-12-18T06:18:08.324Z,-1.83
2022-12-18T06:20:37.589Z,-1.02
2022-12-18T06:23:04.589Z,-3.05
2022-12-18T06:25:33.051Z,-2.24
2022-12-18T06:28:00.229Z,-2.04
2022-12-18T06:30:27.147Z,-2.15
2022-12-18T06:32:56.573Z,-1.00
2022-12-18T06:35:23.983Z,-1.23
2022-12-18T06:37:50.808Z,-2.09
2022-12-18T06:40:17.743Z,-1.42
2022-12-18T06:42:44.367Z,-2.97
2022-12-18T06:45:12.401Z,-2.97
2022-12-18T06:47:39.082Z,-1.92
2022-12-18T06:50:06.562Z,-1.46
2022-12-18T06:52:33.979Z,-3.33
2022-12-18T06:55:00.893Z,-1.31
2022-12-18T06:57:27.512Z,-2.94
2022-12-18T06:59:54.201Z,-2.71
2022-12-18T07:02:20.933Z,-2.16
2022-12-18T07:04:47.686Z,-1.75
2022-12-18T07:07:14.335Z,-2.77
2022-12-18T07:09:41.055Z,-2.53
2022-12-18T07:12:08.824Z,-4.15
2022-12-18T07:14:35.626Z,-3.21
2022-12-18T07:17:02.911Z,-3.64
2022-12-18T07:19:30.459Z,-2.49
2022-12-18T07:21:57.830Z,-2.88
2022-12-18T07:24:24.554Z,-2.71
2022-12-18T07:26:51.267Z,-3.18
2022-12-18T07:29:18.010Z,-5.21
2022-12-18T07:31:45.234Z,-2.84
2022-12-18T07:34:13.592Z,-3.76
2022-12-18T07:36:45.161Z,-1.91
2022-12-18T07:39:12.815Z,-1.66
2022-12-18T07:41:46.785Z,-6.00
2022-12-18T07:44:16.252Z,-3.02
2022-12-18T07:46:42.968Z,-4.80
2022-12-18T07:49:09.641Z,-1.47
2022-12-18T07:51:36.340Z,-2.83
2022-12-18T07:54:03.032Z,-3.14
2022-12-18T07:56:31.177Z,-2.56
2022-12-18T07:58:59.872Z,-1.71
2022-12-18T08:01:29.668Z,-1.27
2022-12-18T08:03:56.543Z,-2.73
2022-12-18T08:06:24.263Z,-1.68
2022-12-18T08:08:55.639Z,-2.80
2022-12-18T08:11:24.153Z,-1.59
2022-12-18T08:13:51.254Z,-2.85
2022-12-18T08:16:19.066Z,-2.08
2022-12-18T08:18:46.764Z,-2.00
2022-12-18T08:21:21.534Z,-2.46
2022-12-18T08:23:48.787Z,-2.40
2022-12-18T08:26:15.988Z,-1.63
2022-12-18T08:28:43.006Z,-1.32
2022-12-18T08:31:10.487Z,-1.90
2022-12-18T08:33:39.038Z,-3.26
2022-12-18T08:36:06.679Z,-1.04
2022-12-18T08:38:34.196Z,-2.17
2022-12-18T08:41:02.012Z,-2.16
2022-12-18T08:44:04.315Z,-3.04
2022-12-18T08:46:40.896Z,-1.34
2022-12-18T08:49:08.963Z,-1.44
2022-12-18T08:51:36.661Z,-2.92
2022-12-18T08:54:04.597Z,-2.01
2022-12-18T08:56:34.285Z,-2.36
2022-12-18T08:59:01.355Z,-2.70
2022-12-18T09:01:28.492Z,-3.59
2022-12-18T09:03:55.364Z,-1.77
2022-12-18T09:06:23.508Z,-3.12
2022-12-18T09:08:50.349Z,-2.15
2022-12-18T09:11:23.641Z,-3.62
2022-12-18T09:13:50.710Z,-3.48
2022-12-18T09:16:18.165Z,-3.14
2022-12-18T09:18:44.964Z,-2.90
2022-12-18T09:21:17.027Z,-2.35
2022-12-18T09:23:44.051Z,-2.31
2022-12-18T09:26:11.365Z,-2.29
2022-12-18T09:28:38.561Z,-2.18
2022-12-18T09:31:08.635Z,-2.27
2022-12-18T09:33:38.996Z,-2.52
2022-12-18T09:36:08.257Z,-2.38
2022-12-18T09:38:35.893Z,-3.38
2022-12-18T09:41:25.839Z,-2.43
2022-12-18T09:44:00.668Z,-3.40
2022-12-18T09:46:41.760Z,-2.22
2022-12-18T09:49:15.700Z,-2.78
2022-12-18T09:51:51.983Z,-2.74
2022-12-18T09:54:27.203Z,-4.34
2022-12-18T09:56:54.928Z,-4.33
2022-12-18T09:59:26.601Z,-3.80
2022-12-18T10:01:53.424Z,-4.35
2022-12-18T10:04:20.373Z,-2.97
2022-12-18T10:06:55.856Z,-2.99
2022-12-18T10:09:38.101Z,-3.07
2022-12-18T10:12:07.597Z,-3.06
2022-12-18T10:14:53.334Z,-3.18
2022-12-18T10:17:38.562Z,-3.24
2022-12-18T10:20:23.444Z,-3.11
2022-12-18T10:23:19.340Z,-3.21
2022-12-18T10:25:56.132Z,-2.93
2022-12-18T10:28:26.036Z,-3.89
2022-12-18T10:30:53.003Z,-4.01
2022-12-18T10:33:26.502Z,-3.19
2022-12-18T10:35:54.046Z,-2.55
2022-12-18T10:38:28.070Z,-2.60
2022-12-18T10:41:07.260Z,-2.85
2022-12-18T10:43:36.455Z,-4.62
2022-12-18T10:46:09.392Z,-3.19
2022-12-18T10:48:48.315Z,-3.98
2022-12-18T10:51:27.131Z,-2.90
2022-12-18T10:54:02.649Z,-2.84
2022-12-18T10:56:32.214Z,-3.21
2022-12-18T10:59:08.293Z,-3.87
2022-12-18T11:01:55.017Z,-3.04
2022-12-18T11:04:27.667Z,-5.58
2022-12-18T11:07:06.444Z,-3.15
2022-12-18T11:09:35.628Z,-4.52
2022-12-18T11:12:24.681Z,-3.52
2022-12-18T11:14:53.637Z,-3.52
2022-12-18T11:17:26.082Z,-4.32
2022-12-18T11:19:55.338Z,-4.86
2022-12-18T11:22:27.355Z,-3.47
2022-12-18T11:27:59.849Z,-3.51
2022-12-18T11:30:36.159Z,-4.39
2022-12-18T11:33:20.316Z,-3.92
2022-12-18T11:36:03.752Z,-3.46
2022-12-18T11:38:36.047Z,-3.67
2022-12-18T11:41:49.962Z,-4.79
2022-12-18T11:44:23.867Z,-5.79
2022-12-18T11:47:00.823Z,-4.43
2022-12-18T11:49:35.841Z,-3.30
2022-12-18T11:52:32.054Z,-3.39
2022-12-18T11:55:09.884Z,-3.17
2022-12-18T11:58:02.002Z,-4.10
2022-12-18T12:00:37.427Z,-5.19
2022-12-18T12:03:28.727Z,-3.22
2022-12-18T12:06:12.858Z,-4.57
2022-12-18T12:09:03.779Z,-5.24
2022-12-18T12:12:07.538Z,-3.53
2022-12-18T12:14:46.333Z,-3.49
2022-12-18T12:17:18.573Z,-4.14
2022-12-18T12:20:16.899Z,-3.64
2022-12-18T12:23:06.987Z,-2.80
2022-12-18T12:25:55.261Z,-3.36
2022-12-18T12:28:40.804Z,-2.67
2022-12-18T12:31:33.946Z,-3.03
2022-12-18T12:34:25.342Z,-3.72
2022-12-18T12:37:10.331Z,-3.20
2022-12-18T12:39:43.542Z,-2.80
2022-12-18T12:42:53.868Z,-3.72
2022-12-18T12:45:44.165Z,-3.14
2022-12-18T12:48:19.989Z,-2.96
2022-12-18T12:50:48.909Z,-3.84
2022-12-18T12:53:25.629Z,-5.57
2022-12-18T12:55:55.831Z,-2.97
2022-12-18T12:58:44.416Z,-3.08
2022-12-18T13:01:24.406Z,-3.22
2022-12-18T13:04:13.885Z,-3.94
2022-12-18T13:06:55.628Z,-3.31
2022-12-18T13:09:22.471Z,-3.57
2022-12-18T13:12:08.453Z,-4.64
2022-12-18T13:14:37.557Z,-3.85
2022-12-18T13:17:22.476Z,-3.45
2022-12-18T13:20:12.737Z,-3.70
2022-12-18T13:22:51.497Z,-3.42
2022-12-18T13:25:39.323Z,-3.29
2022-12-18T13:28:11.041Z,-4.32
2022-12-18T13:30:57.425Z,-3.28
2022-12-18T13:33:27.938Z,-3.45
2022-12-18T13:36:16.672Z,-3.88
2022-12-18T13:38:45.140Z,-4.73
2022-12-18T13:41:25.699Z,-3.73
2022-12-18T13:43:59.971Z,-4.25
2022-12-18T13:46:47.090Z,-3.49
2022-12-18T13:49:13.813Z,-3.44
2022-12-18T13:51:50.770Z,-3.98
2022-12-18T13:54:47.215Z,-3.54
2022-12-18T13:57:39.684Z,-4.73
2022-12-18T14:00:29.755Z,-3.51
2022-12-18T14:02:58.586Z,-3.46
2022-12-18T14:05:26.702Z,-3.37
2022-12-18T14:07:54.745Z,-3.34
2022-12-18T14:10:47.936Z,-3.97
2022-12-18T14:13:16.173Z,-4.81
2022-12-18T14:15:48.925Z,-4.49
2022-12-18T14:18:15.545Z,-2.89
2022-12-18T14:20:49.230Z,-2.79
2022-12-18T14:23:44.215Z,-3.07
2022-12-18T14:26:31.727Z,-3.88
2022-12-18T14:29:02.274Z,-3.95
2022-12-18T14:31:33.266Z,-6.01
2022-12-18T14:34:02.916Z,-3.46
2022-12-18T14:36:30.265Z,-3.94
2022-12-18T14:38:59.583Z,-3.97
2022-12-18T14:41:27.213Z,-3.68
2022-12-18T14:43:55.836Z,-4.06
2022-12-18T14:46:35.433Z,-3.31
2022-12-18T14:49:25.362Z,-3.30
2022-12-18T14:51:55.571Z,-3.15
2022-12-18T14:54:24.258Z,-4.92
2022-12-18T14:57:16.249Z,-3.87
2022-12-18T14:59:43.168Z,-3.75
2022-12-18T15:02:27.831Z,-4.62
2022-12-18T15:05:19.947Z,-3.91
2022-12-18T15:07:52.081Z,-4.59
2022-12-18T15:10:27.254Z,-3.24
2022-12-18T15:12:57.149Z,-2.76
2022-12-18T15:15:39.041Z,-2.64
2022-12-18T15:18:13.311Z,-2.54
2022-12-18T15:20:56.709Z,-2.59
2022-12-18T15:23:27.333Z,-2.44
2022-12-18T15:26:09.590Z,-2.71
2022-12-18T15:28:44.149Z,-2.83
2022-12-18T15:31:12.336Z,-2.93
2022-12-18T15:33:50.216Z,-4.62
2022-12-18T15:36:20.855Z,-3.09
2022-12-18T15:39:04.851Z,-3.70
2022-12-18T15:41:36.012Z,-3.96
2022-12-18T15:44:04.732Z,-3.44
2022-12-18T15:46:32.083Z,-6.80
2022-12-18T15:49:02.096Z,-7.69
2022-12-18T15:51:39.498Z,-3.90
2022-12-18T15:54:12.760Z,-4.68
2022-12-18T15:56:58.285Z,-3.90
2022-12-18T15:59:25.444Z,-3.76
2022-12-18T16:01:54.139Z,-3.78
2022-12-18T16:04:22.611Z,-4.40
2022-12-18T16:09:37.562Z,-3.49
2022-12-18T16:12:04.754Z,-4.07
2022-12-18T16:14:33.076Z,-3.95
2022-12-18T16:17:02.414Z,-3.26
2022-12-18T16:19:30.398Z,-4.32
2022-12-18T16:22:12.631Z,-4.94
2022-12-18T16:24:43.769Z,-4.58
2022-12-18T16:27:10.534Z,-4.96
2022-12-18T16:29:37.179Z,-4.29
2022-12-18T16:32:06.345Z,-3.83
2022-12-18T16:34:41.366Z,-6.32
2022-12-18T16:37:09.715Z,-4.46
2022-12-18T16:39:37.875Z,-5.70
2022-12-18T16:42:08.108Z,-6.29
2022-12-18T16:44:35.305Z,-4.81
2022-12-18T16:47:03.899Z,-3.54
2022-12-18T16:49:30.965Z,-4.57
2022-12-18T16:51:57.983Z,-3.27
2022-12-18T16:54:25.400Z,-3.15
2022-12-18T16:56:55.062Z,-4.23
2022-12-18T16:59:22.333Z,-3.52
2022-12-18T17:01:49.124Z,-4.64
2022-12-18T17:04:17.221Z,-5.48
2022-12-18T17:06:46.137Z,-3.96
2022-12-18T17:09:17.583Z,-4.88
2022-12-18T17:11:44.474Z,-4.32
2022-12-18T17:14:15.184Z,-3.93
2022-12-18T17:16:42.161Z,-3.85
2022-12-18T17:19:15.324Z,-4.54
2022-12-18T17:21:45.706Z,-3.55
2022-12-18T17:24:12.384Z,-3.71
2022-12-18T17:26:39.166Z,-5.37
2022-12-18T17:29:06.199Z,-4.10
2022-12-18T17:31:33.774Z,-3.54
2022-12-18T17:34:03.041Z,-5.48
2022-12-18T17:36:31.946Z,-4.79
2022-12-18T17:39:00.840Z,-4.22
2022-12-18T17:41:29.659Z,-5.46
2022-12-18T17:44:00.570Z,-3.32
2022-12-18T17:46:28.978Z,-4.03
2022-12-18T17:48:55.744Z,-4.31
2022-12-18T17:51:22.590Z,-5.18
2022-12-18T17:53:49.483Z,-3.07
2022-12-18T17:56:19.938Z,-3.27
2022-12-18T17:58:48.119Z,-3.90
2022-12-18T18:01:17.222Z,-7.19
2022-12-18T18:03:45.134Z,-4.67
2022-12-18T18:06:12.343Z,-5.25
2022-12-18T18:08:39.090Z,-4.84
2022-12-18T18:11:33.167Z,-4.30
2022-12-18T18:14:00.743Z,-4.20
2022-12-18T18:16:40.933Z,-4.52
2022-12-18T18:19:20.026Z,-3.92
2022-12-18T18:21:53.235Z,-3.92
2022-12-18T18:24:42.758Z,-5.02
2022-12-18T18:27:09.739Z,-4.69
2022-12-18T18:29:36.582Z,-6.41
2022-12-18T18:32:03.675Z,-4.01
2022-12-18T18:34:32.326Z,-4.89
2022-12-18T18:37:00.983Z,-6.03
2022-12-18T18:39:28.245Z,-5.60
2022-12-18T18:41:55.805Z,-3.97
2022-12-18T18:44:33.912Z,-5.20
2022-12-18T18:47:00.854Z,-8.83
2022-12-18T18:49:28.667Z,-6.54
2022-12-18T18:52:03.989Z,-4.09
2022-12-18T18:54:31.422Z,-5.37
2022-12-18T18:59:46.917Z,-5.20
2022-12-18T19:02:18.044Z,-4.46
2022-12-18T19:04:52.095Z,-6.47
2022-12-18T19:07:29.641Z,-4.70
2022-12-18T19:10:04.907Z,-4.58
2022-12-18T19:12:51.590Z,-5.25
2022-12-18T19:15:18.390Z,-4.39
2022-12-18T19:17:47.065Z,-6.24
2022-12-18T19:20:15.951Z,-4.80
2022-12-18T19:22:42.725Z,-5.08
2022-12-18T19:25:10.129Z,-4.04
2022-12-18T19:27:38.921Z,-4.67
2022-12-18T19:30:06.234Z,-5.15
2022-12-18T19:32:34.258Z,-5.73
2022-12-18T19:35:01.104Z,-5.06
2022-12-18T19:37:28.646Z,-5.61
2022-12-18T19:39:56.690Z,-4.02
2022-12-18T19:42:30.641Z,-4.53
2022-12-18T19:45:02.430Z,-4.91
2022-12-18T19:47:30.167Z,-4.41
2022-12-18T19:49:57.373Z,-4.43
2022-12-18T19:52:24.225Z,-6.53
2022-12-18T19:54:51.052Z,-4.81
2022-12-18T19:57:17.745Z,-4.95
2022-12-18T19:59:44.524Z,-4.55
2022-12-18T20:02:13.785Z,-4.31
2022-12-18T20:04:41.195Z,-4.84
2022-12-18T20:07:08.449Z,-4.16
2022-12-18T20:09:36.946Z,-3.77
2022-12-18T20:12:04.830Z,-3.68
2022-12-18T20:14:31.711Z,-3.71
2022-12-18T20:17:08.509Z,-4.74
2022-12-18T20:20:53.287Z,-17.56
2022-12-18T20:31:06.426Z,-7.99
2022-12-18T20:33:33.456Z,-4.53
2022-12-18T20:36:08.804Z,-5.10
2022-12-18T20:38:38.730Z,-5.14
2022-12-18T20:41:11.818Z,-4.52
2022-12-18T20:43:39.679Z,-4.75
2022-12-18T20:46:09.779Z,-4.68
2022-12-18T20:48:36.618Z,-4.92
2022-12-18T20:51:07.610Z,-5.15
2022-12-18T20:53:40.106Z,-4.62
2022-12-18T20:56:17.821Z,-5.24
2022-12-18T20:58:49.639Z,-4.33
2022-12-18T21:01:19.224Z,-4.04
2022-12-18T21:03:48.266Z,-4.54
2022-12-18T21:06:17.645Z,-4.28
2022-12-18T21:08:44.666Z,-4.51
2022-12-18T21:11:39.228Z,-5.16
2022-12-18T21:14:26.793Z,-5.20
2022-12-18T21:16:54.180Z,-4.45
2022-12-18T21:19:26.162Z,-4.58
2022-12-18T21:21:54.361Z,-5.14
2022-12-18T21:24:21.814Z,-6.62
2022-12-18T21:26:50.857Z,-6.50
2022-12-18T21:29:22.371Z,-7.12
2022-12-18T21:31:49.664Z,-6.17
2022-12-18T21:34:35.846Z,-5.03
2022-12-18T21:37:02.833Z,-4.68
2022-12-18T21:39:30.697Z,-5.65
2022-12-18T21:42:17.026Z,-5.22
2022-12-18T21:44:44.665Z,-5.62
2022-12-18T21:47:22.326Z,-6.15
2022-12-18T21:49:52.577Z,-5.44
2022-12-18T21:52:21.571Z,-4.97
2022-12-18T21:54:58.484Z,-6.38
2022-12-18T21:57:27.486Z,-5.42
2022-12-18T21:59:55.740Z,-7.64
2022-12-18T22:02:23.055Z,-5.02
2022-12-18T22:04:49.902Z,-6.41
2022-12-18T22:07:17.086Z,-4.86
2022-12-18T22:09:44.252Z,-4.92
2022-12-18T22:12:12.981Z,-5.12
2022-12-18T22:14:39.720Z,-6.74
2022-12-18T22:17:06.529Z,-5.85
2022-12-18T22:19:38.154Z,-4.94
2022-12-18T22:22:09.509Z,-5.48
2022-12-18T22:24:36.293Z,-5.72
2022-12-18T22:27:03.336Z,-4.80
2022-12-18T22:29:49.614Z,-4.56
2022-12-18T22:32:20.402Z,-5.89
2022-12-18T22:35:06.229Z,-4.55
2022-12-18T22:37:36.988Z,-6.89
2022-12-18T22:40:05.891Z,-4.55
2022-12-18T22:42:32.869Z,-4.56
2022-12-18T22:45:00.339Z,-5.29
2022-12-18T22:47:30.114Z,-5.95
2022-12-18T22:49:58.122Z,-4.75
2022-12-18T22:52:25.274Z,-4.25
2022-12-18T22:54:53.278Z,-4.85
2022-12-18T22:57:21.795Z,-3.93
2022-12-18T22:59:49.979Z,-4.48
2022-12-18T23:02:19.279Z,-4.39
2022-12-18T23:04:47.445Z,-4.75
2022-12-18T23:07:14.585Z,-4.25
2022-12-18T23:09:41.311Z,-3.84
2022-12-18T23:12:14.261Z,-3.57
2022-12-18T23:14:41.046Z,-5.36
2022-12-18T23:17:07.671Z,-4.49
2022-12-18T23:19:34.397Z,-4.52
2022-12-18T23:22:03.507Z,-4.60
2022-12-18T23:24:32.801Z,-4.55
2022-12-18T23:26:59.517Z,-3.52
2022-12-18T23:29:26.254Z,-3.88
2022-12-18T23:31:53.114Z,-4.30
2022-12-18T23:34:19.937Z,-4.51
2022-12-18T23:36:47.490Z,-3.60
2022-12-18T23:39:29.429Z,-3.96
2022-12-18T23:42:00.638Z,-3.72
2022-12-18T23:44:28.098Z,-3.32
2022-12-18T23:46:55.338Z,-3.73
2022-12-18T23:49:23.605Z,-3.30
2022-12-18T23:51:50.678Z,-4.82
2022-12-18T23:54:17.347Z,-3.74
2022-12-18T23:56:49.018Z,-3.60
2022-12-18T23:59:15.765Z,-2.92
